Time;durP1;ratioP1;P1;durP2;ratioP2;P2;SDS_P1;SDS_P2;PMS_P1;PMS_P2;Temp;Humidity;BMP_temperature;BMP_pressure;BME280_temperature;BME280_humidity;BME280_pressure;Samples;Min_cycle;Max_cycle;Signal;HPM_P1;HPM_P2
2022/06/08 00:00:32;;;;;;;;;;;16.80;99.90;;;;;;4315337;33;44210;-82
2022/06/08 00:03:11;;;;;;;;;;;16.80;99.90;;;;;;4302345;33;43786;-83
2022/06/08 00:05:38;;;;;;;;;;;16.80;99.90;;;;;;4302343;33;43584;-82
2022/06/08 00:08:06;;;;;;;;;;;16.80;99.90;;;;;;4302465;33;44947;-82
2022/06/08 00:10:33;;;;;;;;;;;16.80;99.90;;;;;;4302815;33;43240;-82
2022/06/08 00:13:03;;;;;;;;;;;16.80;99.90;;;;;;4302832;33;43445;-81
2022/06/08 00:15:30;;;;;;;;;;;16.70;99.90;;;;;;4302879;33;44217;-82
2022/06/08 00:18:01;;;;;;;;;;;16.70;99.90;;;;;;4315733;33;44581;-82
2022/06/08 00:20:28;;;;;;;;;;;16.70;99.90;;;;;;4302829;33;44615;-82
2022/06/08 00:22:55;;;;;;;;;;;16.70;99.90;;;;;;4315759;33;44991;-81
2022/06/08 00:25:23;;;;;;;;;;;16.70;99.90;;;;;;4302546;33;44394;-83
2022/06/08 00:27:50;;;;;;;;;;;16.70;99.90;;;;;;4302683;33;43609;-82
2022/06/08 00:30:17;;;;;;;;;;;16.70;99.90;;;;;;4315945;33;45829;-84
2022/06/08 00:32:44;;;;;;;;;;;16.70;99.90;;;;;;4315610;33;43894;-82
2022/06/08 00:35:11;;;;;;;;;;;16.70;99.90;;;;;;4315538;33;43270;-83
2022/06/08 00:37:38;;;;;;;;;;;16.70;99.90;;;;;;4302442;33;43178;-83
2022/06/08 00:40:06;;;;;;;;;;;16.70;99.90;;;;;;4302641;33;43478;-83
2022/06/08 00:42:33;;;;;;;;;;;16.70;99.90;;;;;;4302931;33;45047;-82
2022/06/08 00:45:04;;;;;;;;;;;16.70;99.90;;;;;;4318335;33;43214;-83
2022/06/08 00:47:33;;;;;;;;;;;16.60;99.90;;;;;;4305091;33;44162;-83
2022/06/08 00:50:01;;;;;;;;;;;16.70;99.90;;;;;;4304824;33;43877;-83
2022/06/08 00:52:29;;;;;;;;;;;16.60;99.90;;;;;;4304902;33;44034;-82
2022/06/08 00:54:59;;;;;;;;;;;16.60;99.90;;;;;;4304889;33;43202;-84
2022/06/08 00:57:32;;;;;;;;;;;16.60;99.90;;;;;;4304914;33;43916;-82
2022/06/08 01:00:03;;;;;;;;;;;16.60;99.90;;;;;;4318359;33;45047;-82
2022/06/08 01:02:30;;;;;;;;;;;16.60;99.90;;;;;;4304727;33;43458;-82
2022/06/08 01:05:18;;;;;;;;;;;16.60;99.90;;;;;;4317705;33;43126;-82
2022/06/08 01:07:46;;;;;;;;;;;16.60;99.90;;;;;;4317735;33;43571;-83
2022/06/08 01:10:14;;;;;;;;;;;16.60;99.90;;;;;;4304953;33;44158;-83
2022/06/08 01:12:42;;;;;;;;;;;16.60;99.90;;;;;;4318068;33;39413;-82
2022/06/08 01:15:14;;;;;;;;;;;16.60;99.90;;;;;;4317995;33;44229;-80
2022/06/08 01:17:41;;;;;;;;;;;16.60;99.90;;;;;;4304554;33;43259;-81
2022/06/08 01:20:10;;;;;;;;;;;16.60;99.90;;;;;;4304854;33;42775;-82
2022/06/08 01:22:37;;;;;;;;;;;16.50;99.90;;;;;;4318724;33;20049;-82
2022/06/08 01:25:08;;;;;;;;;;;16.50;99.90;;;;;;4304391;33;43739;-83
2022/06/08 01:27:43;;;;;;;;;;;16.50;99.90;;;;;;4304342;33;43055;-84
2022/06/08 01:30:17;;;;;;;;;;;16.50;99.90;;;;;;4304947;33;43371;-82
2022/06/08 01:32:59;;;;;;;;;;;16.50;99.90;;;;;;4317984;33;43462;-83
2022/06/08 01:35:45;;;;;;;;;;;16.50;99.90;;;;;;4318086;33;45695;-82
2022/06/08 01:38:33;;;;;;;;;;;16.50;99.90;;;;;;4317711;33;44101;-84
2022/06/08 01:41:19;;;;;;;;;;;16.50;99.90;;;;;;4304627;33;42536;-82
2022/06/08 01:43:58;;;;;;;;;;;16.50;99.90;;;;;;4304100;33;43389;-82
2022/06/08 01:46:27;;;;;;;;;;;16.50;99.90;;;;;;4304160;33;43445;-83
2022/06/08 01:49:13;;;;;;;;;;;16.50;99.90;;;;;;4317695;33;44597;-87
2022/06/08 01:51:55;;;;;;;;;;;16.50;99.90;;;;;;4304063;33;44330;-84
2022/06/08 01:54:28;;;;;;;;;;;16.50;99.90;;;;;;4317077;33;43958;-85
2022/06/08 01:56:58;;;;;;;;;;;16.50;99.90;;;;;;4304658;33;43499;-84
2022/06/08 01:59:25;;;;;;;;;;;16.40;99.90;;;;;;4317576;33;43485;-83
2022/06/08 02:02:04;;;;;;;;;;;16.40;99.90;;;;;;4316906;33;43825;-83
2022/06/08 02:04:43;;;;;;;;;;;16.40;99.90;;;;;;4317441;33;44309;-83
2022/06/08 02:07:29;;;;;;;;;;;16.40;99.90;;;;;;4317323;33;43431;-84
2022/06/08 02:09:56;;;;;;;;;;;16.40;99.90;;;;;;4316941;33;44252;-84
2022/06/08 02:12:23;;;;;;;;;;;16.40;99.90;;;;;;4303817;33;43962;-84
2022/06/08 02:14:56;;;;;;;;;;;16.40;99.90;;;;;;4317627;33;43473;-84
2022/06/08 02:17:33;;;;;;;;;;;16.40;99.90;;;;;;4304182;33;43950;-83
2022/06/08 02:20:08;;;;;;;;;;;16.40;99.90;;;;;;4304056;33;43118;-84
2022/06/08 02:22:38;;;;;;;;;;;16.40;99.90;;;;;;4317105;33;44004;-83
2022/06/08 02:25:14;;;;;;;;;;;16.40;99.90;;;;;;4318182;33;20061;-83
2022/06/08 02:28:05;;;;;;;;;;;16.40;99.90;;;;;;4316897;33;44263;-83
2022/06/08 02:30:34;;;;;;;;;;;16.40;99.90;;;;;;4298077;33;43826;-84
2022/06/08 02:35:52;;;;;;;;;;;16.40;99.90;;;;;;4317312;33;46302;-83
2022/06/08 02:38:22;;;;;;;;;;;16.40;99.90;;;;;;4316502;33;44293;-84
2022/06/08 02:40:51;;;;;;;;;;;16.40;99.90;;;;;;4316382;33;45424;-82
2022/06/08 02:43:22;;;;;;;;;;;16.40;99.90;;;;;;4303717;33;44194;-83
2022/06/08 02:45:54;;;;;;;;;;;16.40;99.90;;;;;;4303861;33;42990;-82
2022/06/08 02:48:21;;;;;;;;;;;16.40;99.90;;;;;;4316629;33;42919;-82
2022/06/08 02:50:51;;;;;;;;;;;16.40;99.90;;;;;;4303392;33;44303;-83
2022/06/08 02:53:18;;;;;;;;;;;16.30;99.90;;;;;;4316712;33;45219;-83
2022/06/08 02:55:52;;;;;;;;;;;16.30;99.90;;;;;;4303960;33;43289;-82
2022/06/08 02:58:31;;;;;;;;;;;16.40;99.90;;;;;;4303566;33;43201;-83
2022/06/08 03:01:03;;;;;;;;;;;16.40;99.90;;;;;;4316230;33;44749;-80
2022/06/08 03:03:36;;;;;;;;;;;16.30;99.90;;;;;;4302864;33;44679;-83
2022/06/08 03:06:05;;;;;;;;;;;16.30;99.90;;;;;;4316812;33;43317;-83
2022/06/08 03:08:37;;;;;;;;;;;16.30;99.90;;;;;;4316691;33;43843;-82
2022/06/08 03:11:06;;;;;;;;;;;16.30;99.90;;;;;;4303384;33;42947;-84
2022/06/08 03:13:38;;;;;;;;;;;16.30;99.90;;;;;;4316147;33;45822;-83
2022/06/08 03:16:07;;;;;;;;;;;16.30;99.90;;;;;;4316388;33;43821;-83
2022/06/08 03:18:34;;;;;;;;;;;16.30;99.90;;;;;;4316088;33;44809;-80
2022/06/08 03:21:03;;;;;;;;;;;16.30;99.90;;;;;;4303217;33;45905;-80
2022/06/08 03:23:30;;;;;;;;;;;16.30;99.90;;;;;;4303067;33;44667;-80
2022/06/08 03:26:00;;;;;;;;;;;16.30;99.90;;;;;;4303949;33;20053;-83
2022/06/08 03:28:27;;;;;;;;;;;16.30;99.90;;;;;;4302974;33;43939;-82
2022/06/08 03:30:54;;;;;;;;;;;16.30;99.90;;;;;;4302579;33;45684;-81
2022/06/08 03:33:21;;;;;;;;;;;16.20;99.90;;;;;;4303260;33;44192;-81
2022/06/08 03:35:48;;;;;;;;;;;16.20;99.90;;;;;;4315853;33;44176;-82
2022/06/08 03:38:16;;;;;;;;;;;16.20;99.90;;;;;;4302585;33;44765;-80
2022/06/08 03:40:43;;;;;;;;;;;16.20;99.90;;;;;;4302774;33;41897;-82
2022/06/08 03:43:10;;;;;;;;;;;16.20;99.90;;;;;;4315934;33;42675;-82
2022/06/08 03:45:44;;;;;;;;;;;16.20;99.90;;;;;;4302940;33;45805;-85
2022/06/08 03:48:15;;;;;;;;;;;16.20;99.90;;;;;;4303006;33;44073;-81
2022/06/08 03:50:46;;;;;;;;;;;16.20;99.90;;;;;;4302571;33;42682;-82
2022/06/08 03:53:18;;;;;;;;;;;16.10;99.90;;;;;;4316037;33;43006;-81
2022/06/08 03:55:49;;;;;;;;;;;16.20;99.90;;;;;;4316119;33;44700;-79
2022/06/08 03:58:19;;;;;;;;;;;16.10;99.90;;;;;;4315817;33;42523;-82
2022/06/08 04:00:54;;;;;;;;;;;16.10;99.90;;;;;;4315996;33;44967;-82
2022/06/08 04:03:21;;;;;;;;;;;16.10;99.90;;;;;;4302162;33;44053;-86
2022/06/08 04:05:51;;;;;;;;;;;16.20;99.90;;;;;;4302873;33;44201;-84
2022/06/08 04:08:19;;;;;;;;;;;16.10;99.90;;;;;;4302887;33;46118;-85
2022/06/08 04:10:46;;;;;;;;;;;16.20;99.90;;;;;;4315601;33;43930;-83
2022/06/08 04:13:13;;;;;;;;;;;16.10;99.90;;;;;;4302405;33;42400;-83
2022/06/08 04:15:43;;;;;;;;;;;16.10;99.90;;;;;;4303070;33;45988;-83
2022/06/08 04:18:12;;;;;;;;;;;16.10;99.90;;;;;;4304146;33;44051;-86
2022/06/08 04:20:41;;;;;;;;;;;16.10;99.90;;;;;;4305627;33;43824;-82
2022/06/08 04:23:11;;;;;;;;;;;16.10;99.90;;;;;;4318366;33;43285;-85
2022/06/08 04:25:39;;;;;;;;;;;16.10;99.90;;;;;;4305217;33;43947;-83
2022/06/08 04:28:06;;;;;;;;;;;16.10;99.90;;;;;;4319095;33;20059;-84
2022/06/08 04:30:45;;;;;;;;;;;16.10;99.90;;;;;;4318276;33;43336;-84
2022/06/08 04:33:16;;;;;;;;;;;16.10;99.90;;;;;;4305596;33;43990;-85
2022/06/08 04:35:44;;;;;;;;;;;16.10;99.90;;;;;;4318892;33;42480;-87
2022/06/08 04:38:17;;;;;;;;;;;16.10;99.90;;;;;;4305483;33;43361;-86
2022/06/08 04:40:45;;;;;;;;;;;16.10;99.90;;;;;;4318463;33;44267;-85
2022/06/08 04:43:12;;;;;;;;;;;16.10;99.90;;;;;;4317981;33;44536;-84
2022/06/08 04:45:42;;;;;;;;;;;16.10;99.90;;;;;;4305180;33;44216;-83
2022/06/08 04:48:09;;;;;;;;;;;16.10;99.90;;;;;;4304869;33;43649;-84
2022/06/08 04:50:39;;;;;;;;;;;16.10;99.90;;;;;;4304847;33;44979;-83
2022/06/08 04:53:09;;;;;;;;;;;16.00;99.90;;;;;;4305191;33;43949;-87
2022/06/08 04:55:42;;;;;;;;;;;16.10;99.90;;;;;;4305356;33;44144;-87
2022/06/08 04:58:17;;;;;;;;;;;16.00;99.90;;;;;;4306331;33;20041;-83
2022/06/08 05:00:49;;;;;;;;;;;16.00;99.90;;;;;;4316032;33;45855;-87
2022/06/08 05:03:16;;;;;;;;;;;16.00;99.90;;;;;;4318021;33;44175;-85
2022/06/08 05:05:43;;;;;;;;;;;16.00;99.90;;;;;;4318442;33;44910;-83
2022/06/08 05:08:14;;;;;;;;;;;16.00;99.90;;;;;;4304728;33;44614;-85
2022/06/08 05:10:49;;;;;;;;;;;16.00;99.90;;;;;;4305495;33;32776;-85
2022/06/08 05:13:23;;;;;;;;;;;16.00;99.90;;;;;;4318212;33;44389;-84
2022/06/08 05:15:58;;;;;;;;;;;16.00;99.90;;;;;;4305166;33;43870;-83
2022/06/08 05:18:28;;;;;;;;;;;16.00;99.90;;;;;;4318083;33;45661;-86
2022/06/08 05:20:57;;;;;;;;;;;16.10;99.90;;;;;;4304513;33;44267;-86
2022/06/08 05:23:26;;;;;;;;;;;16.10;99.90;;;;;;4317506;33;43366;-82
2022/06/08 05:25:53;;;;;;;;;;;16.10;99.90;;;;;;4317669;33;44690;-83
2022/06/08 05:28:21;;;;;;;;;;;16.10;99.90;;;;;;4319055;33;20470;-85
2022/06/08 05:30:49;;;;;;;;;;;16.00;99.90;;;;;;4304227;33;43910;-87
2022/06/08 05:33:19;;;;;;;;;;;16.10;99.90;;;;;;4317423;33;44829;-82
2022/06/08 05:35:47;;;;;;;;;;;16.10;99.90;;;;;;4304241;33;44178;-82
2022/06/08 05:38:17;;;;;;;;;;;16.10;99.90;;;;;;4304039;33;44497;-82
2022/06/08 05:40:44;;;;;;;;;;;16.00;99.90;;;;;;4303959;33;44928;-87
2022/06/08 05:43:17;;;;;;;;;;;16.00;99.90;;;;;;4304245;33;45123;-83
2022/06/08 05:45:46;;;;;;;;;;;16.00;99.90;;;;;;4317192;33;43007;-84
2022/06/08 05:48:16;;;;;;;;;;;16.10;99.90;;;;;;4317744;33;44763;-82
2022/06/08 05:50:46;;;;;;;;;;;16.10;99.90;;;;;;4304403;33;42531;-84
2022/06/08 05:53:14;;;;;;;;;;;16.00;99.90;;;;;;4304253;33;42289;-87
2022/06/08 05:55:44;;;;;;;;;;;16.00;99.90;;;;;;4303926;33;43762;-86
2022/06/08 05:58:12;;;;;;;;;;;16.00;99.90;;;;;;4317486;33;45929;-83
2022/06/08 06:00:40;;;;;;;;;;;16.00;99.90;;;;;;4303996;33;43798;-83
2022/06/08 06:03:10;;;;;;;;;;;16.10;99.90;;;;;;4303738;33;43470;-83
2022/06/08 06:05:41;;;;;;;;;;;16.00;99.90;;;;;;4317536;33;43964;-82
2022/06/08 06:08:12;;;;;;;;;;;16.10;99.90;;;;;;4304343;33;44049;-83
2022/06/08 06:10:40;;;;;;;;;;;16.10;99.90;;;;;;4317398;33;43503;-86
2022/06/08 06:13:07;;;;;;;;;;;16.00;99.90;;;;;;4317004;33;43486;-87
2022/06/08 06:15:37;;;;;;;;;;;16.10;99.90;;;;;;4304255;33;42871;-84
2022/06/08 06:18:08;;;;;;;;;;;16.00;99.90;;;;;;4316782;33;42824;-82
2022/06/08 06:20:35;;;;;;;;;;;16.10;99.90;;;;;;4304124;33;44031;-82
2022/06/08 06:23:02;;;;;;;;;;;16.00;99.90;;;;;;4317289;33;44866;-87
2022/06/08 06:25:32;;;;;;;;;;;16.10;99.90;;;;;;4304035;33;43235;-87
2022/06/08 06:27:59;;;;;;;;;;;16.10;99.90;;;;;;4317230;33;43354;-84
2022/06/08 06:30:27;;;;;;;;;;;16.10;99.90;;;;;;4316876;33;42996;-84
2022/06/08 06:32:54;;;;;;;;;;;16.10;99.90;;;;;;4303700;33;45751;-84
2022/06/08 06:35:25;;;;;;;;;;;16.10;99.90;;;;;;4316583;33;43569;-82
2022/06/08 06:37:52;;;;;;;;;;;16.10;99.90;;;;;;4303956;33;44606;-85
2022/06/08 06:40:20;;;;;;;;;;;16.10;99.90;;;;;;4303830;33;44547;-83
2022/06/08 06:42:47;;;;;;;;;;;16.10;99.90;;;;;;4316996;33;43952;-84
2022/06/08 06:45:15;;;;;;;;;;;16.10;99.90;;;;;;4303305;33;44195;-82
2022/06/08 06:47:42;;;;;;;;;;;16.10;99.90;;;;;;4303724;33;43893;-82
2022/06/08 06:50:12;;;;;;;;;;;16.10;99.90;;;;;;4303256;33;44331;-82
2022/06/08 06:52:39;;;;;;;;;;;16.10;99.90;;;;;;4303654;33;46303;-81
2022/06/08 06:55:07;;;;;;;;;;;16.10;99.90;;;;;;4303258;33;46120;-84
2022/06/08 06:57:34;;;;;;;;;;;16.20;99.90;;;;;;4316441;33;42635;-81
2022/06/08 07:00:01;;;;;;;;;;;16.10;99.90;;;;;;4303326;33;43990;-84
2022/06/08 07:02:28;;;;;;;;;;;16.10;99.90;;;;;;4316015;33;44987;-80
2022/06/08 07:04:56;;;;;;;;;;;16.20;99.90;;;;;;4316086;33;43466;-80
2022/06/08 07:07:23;;;;;;;;;;;16.20;99.90;;;;;;4303139;33;42462;-81
2022/06/08 07:09:50;;;;;;;;;;;16.10;99.90;;;;;;4316480;33;45463;-81
2022/06/08 07:12:20;;;;;;;;;;;16.20;99.90;;;;;;4316279;33;43452;-83
2022/06/08 07:14:47;;;;;;;;;;;16.20;99.90;;;;;;4302977;33;42113;-84
2022/06/08 07:17:17;;;;;;;;;;;16.20;99.90;;;;;;4303181;33;43991;-82
2022/06/08 07:19:44;;;;;;;;;;;16.20;99.90;;;;;;4302826;33;44111;-85
2022/06/08 07:22:11;;;;;;;;;;;16.20;99.90;;;;;;4315897;33;42976;-84
2022/06/08 07:24:41;;;;;;;;;;;16.20;99.90;;;;;;4316010;33;43486;-83
2022/06/08 07:27:08;;;;;;;;;;;16.30;99.90;;;;;;4315907;33;43158;-82
2022/06/08 07:29:35;;;;;;;;;;;16.30;99.90;;;;;;4303272;33;46093;-85
2022/06/08 07:32:02;;;;;;;;;;;16.30;99.90;;;;;;4303225;33;44852;-84
2022/06/08 07:34:30;;;;;;;;;;;16.30;99.90;;;;;;4303052;33;44644;-84
2022/06/08 07:36:57;;;;;;;;;;;16.30;99.90;;;;;;4302857;33;44069;-80
2022/06/08 07:39:25;;;;;;;;;;;16.30;99.90;;;;;;4303006;33;45635;-83
2022/06/08 07:41:53;;;;;;;;;;;16.30;99.90;;;;;;4302574;33;42913;-85
2022/06/08 07:44:20;;;;;;;;;;;16.30;99.90;;;;;;4302515;33;44184;-84
2022/06/08 07:46:48;;;;;;;;;;;16.40;99.90;;;;;;4303003;33;44883;-82
2022/06/08 07:52:14;;;;;;;;;;;16.40;99.90;;;;;;4315842;33;43718;-82
2022/06/08 07:54:41;;;;;;;;;;;16.40;99.90;;;;;;4315997;33;44149;-82
2022/06/08 07:57:13;;;;;;;;;;;16.40;99.90;;;;;;4303036;33;43599;-82
2022/06/08 07:59:40;;;;;;;;;;;16.40;99.90;;;;;;4302912;33;45148;-85
2022/06/08 08:02:08;;;;;;;;;;;16.40;99.90;;;;;;4303394;33;20002;-83
2022/06/08 08:04:35;;;;;;;;;;;16.40;99.90;;;;;;4315470;33;44100;-85
2022/06/08 08:07:05;;;;;;;;;;;16.40;99.90;;;;;;4302490;33;42874;-82
2022/06/08 08:09:34;;;;;;;;;;;16.40;99.90;;;;;;4302522;33;43466;-82
2022/06/08 08:12:01;;;;;;;;;;;16.40;99.90;;;;;;4302753;33;44297;-82
2022/06/08 08:14:38;;;;;;;;;;;16.40;99.90;;;;;;4302608;33;44298;-84
2022/06/08 08:17:05;;;;;;;;;;;16.50;99.90;;;;;;4315952;33;43514;-84
2022/06/08 08:19:32;;;;;;;;;;;16.40;99.90;;;;;;4316015;33;45923;-86
2022/06/08 08:22:00;;;;;;;;;;;16.40;99.90;;;;;;4315823;33;43878;-84
2022/06/08 08:24:31;;;;;;;;;;;16.40;99.90;;;;;;4302239;33;44219;-82
2022/06/08 08:26:58;;;;;;;;;;;16.50;99.90;;;;;;4302124;33;45275;-82
2022/06/08 08:29:25;;;;;;;;;;;16.50;99.90;;;;;;4302110;33;43318;-85
2022/06/08 08:31:52;;;;;;;;;;;16.50;99.90;;;;;;4315371;33;44625;-85
2022/06/08 08:34:25;;;;;;;;;;;16.50;99.90;;;;;;4302862;33;43172;-85
2022/06/08 08:36:53;;;;;;;;;;;16.50;99.90;;;;;;4302658;33;44071;-84
2022/06/08 08:39:20;;;;;;;;;;;16.50;99.90;;;;;;4302260;33;42912;-84
2022/06/08 08:44:58;;;;;;;;;;;16.50;99.90;;;;;;4315548;33;43858;-83
2022/06/08 08:47:43;;;;;;;;;;;16.50;99.90;;;;;;4297506;33;43875;-83
2022/06/08 08:50:20;;;;;;;;;;;16.50;99.90;;;;;;4304130;33;20020;-84
2022/06/08 08:52:50;;;;;;;;;;;16.50;99.90;;;;;;4302195;33;43329;-81
2022/06/08 08:55:25;;;;;;;;;;;16.50;99.90;;;;;;4315492;33;42279;-82
2022/06/08 08:58:03;;;;;;;;;;;16.40;99.90;;;;;;4302367;33;44814;-80
2022/06/08 09:00:37;;;;;;;;;;;16.50;99.90;;;;;;4302262;33;42846;-81
2022/06/08 09:03:23;;;;;;;;;;;16.40;99.90;;;;;;4303684;33;20061;-80
2022/06/08 09:05:52;;;;;;;;;;;16.50;99.90;;;;;;4318290;33;44052;-81
2022/06/08 09:08:20;;;;;;;;;;;16.40;99.90;;;;;;4318191;33;44241;-82
2022/06/08 09:10:50;;;;;;;;;;;16.40;99.90;;;;;;4304962;33;43098;-81
2022/06/08 09:13:21;;;;;;;;;;;16.40;99.90;;;;;;4318034;33;43871;-82
2022/06/08 09:15:52;;;;;;;;;;;16.40;99.90;;;;;;4305248;33;43192;-81
2022/06/08 09:18:21;;;;;;;;;;;16.40;99.90;;;;;;4304957;33;44602;-80
2022/06/08 09:20:50;;;;;;;;;;;16.40;99.90;;;;;;4317735;33;43793;-80
2022/06/08 09:23:20;;;;;;;;;;;16.40;99.90;;;;;;4317969;33;44419;-82
2022/06/08 09:26:00;;;;;;;;;;;16.40;99.90;;;;;;4304305;33;43028;-82
2022/06/08 09:28:30;;;;;;;;;;;16.40;99.90;;;;;;4318071;33;42877;-81
2022/06/08 09:30:57;;;;;;;;;;;16.40;99.90;;;;;;4317459;33;42525;-81
2022/06/08 09:33:26;;;;;;;;;;;16.40;99.90;;;;;;4305153;33;20060;-81
2022/06/08 09:35:58;;;;;;;;;;;16.40;99.90;;;;;;4317260;33;45673;-80
2022/06/08 09:38:26;;;;;;;;;;;16.40;99.90;;;;;;4317835;33;44305;-81
2022/06/08 09:40:59;;;;;;;;;;;16.40;99.90;;;;;;4304385;33;42870;-81
2022/06/08 09:43:39;;;;;;;;;;;16.40;99.90;;;;;;4304842;33;43149;-81
2022/06/08 09:46:16;;;;;;;;;;;16.40;99.90;;;;;;4317134;33;43540;-80
2022/06/08 09:51:36;;;;;;;;;;;16.40;99.90;;;;;;4317432;33;45941;-82
2022/06/08 09:54:03;;;;;;;;;;;16.40;99.90;;;;;;4317583;33;42874;-81
2022/06/08 09:56:40;;;;;;;;;;;16.40;99.90;;;;;;4304336;33;44556;-81
2022/06/08 09:59:20;;;;;;;;;;;16.40;99.90;;;;;;4304262;33;43295;-80
2022/06/08 10:02:16;;;;;;;;;;;16.40;99.90;;;;;;4304386;33;44293;-80
2022/06/08 10:04:51;;;;;;;;;;;16.30;99.90;;;;;;4307648;33;44788;-81
2022/06/08 10:07:41;;;;;;;;;;;16.40;99.90;;;;;;4304457;33;43725;-81
2022/06/08 10:10:18;;;;;;;;;;;16.40;99.90;;;;;;4317049;33;44294;-80
2022/06/08 10:12:57;;;;;;;;;;;16.40;99.90;;;;;;4316940;33;43354;-81
2022/06/08 10:15:30;;;;;;;;;;;16.40;99.90;;;;;;4303311;33;44618;-80
2022/06/08 10:18:11;;;;;;;;;;;16.40;99.90;;;;;;4304348;33;44567;-80
2022/06/08 10:20:40;;;;;;;;;;;16.40;99.90;;;;;;4317424;33;43908;-80
2022/06/08 10:23:10;;;;;;;;;;;16.40;99.90;;;;;;4317157;33;43241;-81
2022/06/08 10:26:03;;;;;;;;;;;16.40;99.90;;;;;;4304085;33;43958;-81
2022/06/08 10:28:52;;;;;;;;;;;16.40;99.90;;;;;;4315194;33;44008;-81
2022/06/08 10:31:46;;;;;;;;;;;16.40;99.90;;;;;;4282222;33;42432;-80
2022/06/08 10:34:18;;;;;;;;;;;16.40;99.90;;;;;;4287309;33;44333;-81
2022/06/08 10:36:51;;;;;;;;;;;16.40;99.90;;;;;;4304713;33;20057;-81
2022/06/08 10:39:19;;;;;;;;;;;16.40;99.90;;;;;;4303703;33;42654;-81
2022/06/08 10:44:51;;;;;;;;;;;16.40;99.90;;;;;;4317045;33;43402;-81
2022/06/08 10:47:29;;;;;;;;;;;16.40;99.90;;;;;;4303499;33;43486;-82
2022/06/08 10:50:00;;;;;;;;;;;16.40;99.90;;;;;;4303251;33;43478;-80
2022/06/08 10:52:42;;;;;;;;;;;16.40;99.90;;;;;;4316316;33;43728;-80
2022/06/08 10:55:16;;;;;;;;;;;16.40;99.90;;;;;;4316313;33;43864;-81
2022/06/08 10:57:50;;;;;;;;;;;16.40;99.90;;;;;;4316814;33;45126;-81
2022/06/08 11:00:24;;;;;;;;;;;16.40;99.90;;;;;;4303384;33;42325;-80
2022/06/08 11:02:58;;;;;;;;;;;16.40;99.90;;;;;;4303088;33;43962;-81
2022/06/08 11:05:31;;;;;;;;;;;16.40;99.90;;;;;;4303374;33;43727;-81
2022/06/08 11:08:01;;;;;;;;;;;16.40;99.90;;;;;;4304456;33;20009;-80
2022/06/08 11:10:54;;;;;;;;;;;16.40;99.90;;;;;;4303316;33;45529;-83
2022/06/08 11:13:22;;;;;;;;;;;16.40;99.90;;;;;;4300739;33;45838;-82
2022/06/08 11:15:52;;;;;;;;;;;16.40;99.90;;;;;;4315974;33;43520;-80
2022/06/08 11:18:27;;;;;;;;;;;16.40;99.90;;;;;;4316133;33;42521;-81
2022/06/08 11:21:06;;;;;;;;;;;16.30;99.90;;;;;;4316490;33;44205;-79
2022/06/08 11:23:38;;;;;;;;;;;16.30;99.90;;;;;;4303101;33;44244;-82
2022/06/08 11:26:05;;;;;;;;;;;16.30;99.90;;;;;;4302857;33;42619;-81
2022/06/08 11:28:45;;;;;;;;;;;16.30;99.90;;;;;;4315608;33;43521;-79
2022/06/08 11:31:34;;;;;;;;;;;16.30;99.90;;;;;;4302996;33;42879;-82
2022/06/08 11:34:02;;;;;;;;;;;16.30;99.90;;;;;;4303059;33;46110;-81
2022/06/08 11:36:39;;;;;;;;;;;16.30;99.90;;;;;;4302624;33;43202;-82
2022/06/08 11:39:25;;;;;;;;;;;16.30;99.90;;;;;;4316260;33;44805;-83
2022/06/08 11:41:57;;;;;;;;;;;16.30;99.90;;;;;;4302661;33;44287;-80
2022/06/08 11:44:26;;;;;;;;;;;16.30;99.90;;;;;;4302625;33;43965;-81
2022/06/08 11:47:13;;;;;;;;;;;16.20;99.90;;;;;;4302944;33;42745;-85
2022/06/08 11:49:48;;;;;;;;;;;16.30;99.90;;;;;;4315691;33;42850;-82
2022/06/08 11:52:27;;;;;;;;;;;16.30;99.90;;;;;;4303357;33;44020;-81
2022/06/08 11:55:03;;;;;;;;;;;16.20;99.90;;;;;;4302534;33;43405;-83
2022/06/08 11:57:34;;;;;;;;;;;16.20;99.90;;;;;;4303005;33;45713;-82
2022/06/08 12:00:06;;;;;;;;;;;16.20;99.90;;;;;;4302842;33;44421;-84
2022/06/08 12:02:37;;;;;;;;;;;16.20;99.90;;;;;;4290760;33;44604;-83
2022/06/08 12:05:08;;;;;;;;;;;16.30;99.90;;;;;;4302862;33;46066;-83
2022/06/08 12:07:41;;;;;;;;;;;16.30;99.90;;;;;;4302811;33;44750;-84
2022/06/08 12:10:17;;;;;;;;;;;16.20;99.90;;;;;;4317070;33;20009;-83
2022/06/08 12:12:45;;;;;;;;;;;16.30;99.90;;;;;;4315859;33;46210;-85
2022/06/08 12:15:38;;;;;;;;;;;16.20;99.90;;;;;;4302390;33;44084;-83
2022/06/08 12:18:25;;;;;;;;;;;16.30;99.90;;;;;;4313912;33;45812;-85
2022/06/08 12:21:12;;;;;;;;;;;16.30;99.90;;;;;;4302810;33;43881;-84
2022/06/08 12:23:57;;;;;;;;;;;16.20;99.90;;;;;;4302827;33;43765;-83
2022/06/08 12:26:28;;;;;;;;;;;16.30;99.90;;;;;;4302628;33;43578;-82
2022/06/08 12:29:19;;;;;;;;;;;16.20;99.90;;;;;;4302926;33;43130;-84
2022/06/08 12:31:57;;;;;;;;;;;16.20;99.90;;;;;;4315650;33;42537;-84
2022/06/08 12:34:30;;;;;;;;;;;16.20;99.90;;;;;;4302916;33;44842;-82
2022/06/08 12:36:57;;;;;;;;;;;16.20;99.90;;;;;;4315333;33;43992;-85
2022/06/08 12:39:27;;;;;;;;;;;16.20;99.90;;;;;;4304075;33;45657;-83
2022/06/08 12:41:55;;;;;;;;;;;16.20;99.90;;;;;;4318163;33;43854;-84
2022/06/08 12:44:22;;;;;;;;;;;16.20;99.90;;;;;;4305218;33;42831;-85
2022/06/08 12:46:49;;;;;;;;;;;16.20;99.90;;;;;;4318576;33;43426;-84
2022/06/08 12:49:17;;;;;;;;;;;16.30;99.90;;;;;;4305411;33;44659;-84
2022/06/08 12:51:48;;;;;;;;;;;16.20;99.90;;;;;;4305323;33;43530;-82
2022/06/08 12:54:23;;;;;;;;;;;16.20;99.90;;;;;;4318454;33;44261;-86
2022/06/08 12:56:52;;;;;;;;;;;16.20;99.90;;;;;;4318436;33;43716;-84
2022/06/08 12:59:19;;;;;;;;;;;16.20;99.90;;;;;;4318170;33;42622;-87
2022/06/08 13:01:59;;;;;;;;;;;16.20;99.90;;;;;;4302610;33;45042;-82
2022/06/08 13:04:27;;;;;;;;;;;16.20;99.90;;;;;;4302602;33;44390;-84
2022/06/08 13:06:54;;;;;;;;;;;16.20;99.90;;;;;;4303290;33;44199;-86
2022/06/08 13:09:21;;;;;;;;;;;16.20;99.90;;;;;;4302831;33;44425;-84
2022/06/08 13:11:49;;;;;;;;;;;16.20;99.90;;;;;;4302577;33;44686;-82
2022/06/08 13:14:19;;;;;;;;;;;16.20;99.90;;;;;;4302639;33;43379;-82
2022/06/08 13:16:46;;;;;;;;;;;16.20;99.90;;;;;;4303631;33;44684;-82
2022/06/08 13:19:15;;;;;;;;;;;16.20;99.90;;;;;;4302385;33;45739;-85
2022/06/08 13:21:43;;;;;;;;;;;16.20;99.90;;;;;;4302436;33;44461;-84
2022/06/08 13:24:10;;;;;;;;;;;16.20;99.90;;;;;;4301921;33;44285;-85
2022/06/08 13:26:39;;;;;;;;;;;16.20;99.90;;;;;;4301816;33;43920;-84
2022/06/08 13:29:07;;;;;;;;;;;16.20;99.90;;;;;;4302082;33;44160;-85
2022/06/08 13:31:37;;;;;;;;;;;16.20;99.90;;;;;;4303404;33;44758;-84
2022/06/08 13:34:05;;;;;;;;;;;16.20;99.90;;;;;;4303203;33;43421;-84
2022/06/08 13:36:51;;;;;;;;;;;16.20;99.90;;;;;;4301823;33;43814;-85
2022/06/08 13:39:29;;;;;;;;;;;16.30;99.90;;;;;;4302337;33;43030;-85
2022/06/08 13:42:06;;;;;;;;;;;16.20;99.90;;;;;;4302736;33;20586;-86
2022/06/08 13:44:34;;;;;;;;;;;16.30;99.90;;;;;;4303230;33;43899;-85
2022/06/08 13:47:08;;;;;;;;;;;16.20;99.90;;;;;;4302062;33;45486;-84
2022/06/08 13:49:41;;;;;;;;;;;16.20;99.90;;;;;;4303170;33;44556;-85
2022/06/08 13:52:13;;;;;;;;;;;16.30;99.90;;;;;;4301331;33;42353;-86
2022/06/08 13:54:45;;;;;;;;;;;16.30;99.90;;;;;;4302194;33;43875;-85
2022/06/08 13:57:15;;;;;;;;;;;16.20;99.90;;;;;;4303665;33;43984;-86
2022/06/08 13:59:44;;;;;;;;;;;16.30;99.90;;;;;;4303215;33;43842;-84
2022/06/08 14:02:19;;;;;;;;;;;16.30;99.90;;;;;;4301771;33;44116;-81
2022/06/08 14:04:49;;;;;;;;;;;16.30;99.90;;;;;;4302993;33;45664;-87
2022/06/08 14:13:07;;;;;;;;;;;16.30;99.90;;;;;;4303567;33;20006;-86
2022/06/08 14:15:34;;;;;;;;;;;16.30;99.90;;;;;;4302844;33;45646;-85
2022/06/08 14:18:14;;;;;;;;;;;16.30;99.90;;;;;;4302294;33;40431;-86
2022/06/08 14:20:42;;;;;;;;;;;16.30;99.90;;;;;;4301846;33;44990;-85
2022/06/08 14:23:11;;;;;;;;;;;16.30;99.90;;;;;;4301740;33;44759;-87
2022/06/08 14:25:38;;;;;;;;;;;16.30;99.90;;;;;;4301309;33;45153;-87
2022/06/08 14:28:26;;;;;;;;;;;16.30;99.90;;;;;;4301894;33;44026;-87
2022/06/08 14:30:56;;;;;;;;;;;16.30;99.90;;;;;;4301253;33;44672;-86
2022/06/08 14:33:31;;;;;;;;;;;16.30;99.90;;;;;;4301605;33;44643;-87
2022/06/08 14:36:00;;;;;;;;;;;16.30;99.90;;;;;;4302758;33;44116;-86
2022/06/08 14:38:47;;;;;;;;;;;16.30;99.90;;;;;;4301467;33;43484;-85
2022/06/08 14:41:37;;;;;;;;;;;16.30;99.90;;;;;;4301111;33;44640;-82
2022/06/08 14:44:12;;;;;;;;;;;16.30;99.90;;;;;;4302322;33;20349;-84
2022/06/08 14:46:51;;;;;;;;;;;16.40;99.90;;;;;;4301654;33;44230;-85
2022/06/08 14:49:21;;;;;;;;;;;16.40;99.90;;;;;;4300774;33;43840;-83
2022/06/08 14:51:53;;;;;;;;;;;16.40;99.90;;;;;;4301363;33;44464;-83
2022/06/08 14:54:25;;;;;;;;;;;16.50;99.90;;;;;;4302105;33;43237;-84
2022/06/08 14:57:00;;;;;;;;;;;16.50;99.90;;;;;;4301266;33;45958;-81
2022/06/08 14:59:31;;;;;;;;;;;16.50;99.90;;;;;;4300787;33;43803;-82
2022/06/08 15:01:58;;;;;;;;;;;16.40;99.90;;;;;;4300695;33;43681;-82